sensor_id;sensor_type;location;lat;lon;timestamp;temperature;humidity
25300;DHT22;13241;51.208;4.432;2023-03-14T00:01:18;11.60;99.90
25300;DHT22;13241;51.208;4.432;2023-03-14T00:03:46;11.70;99.90
25300;DHT22;13241;51.208;4.432;2023-03-14T00:06:14;11.70;99.90
25300;DHT22;13241;51.208;4.432;2023-03-14T00:08:42;11.80;99.90
25300;DHT22;13241;51.208;4.432;2023-03-14T00:11:11;11.80;99.90
25300;DHT22;13241;51.208;4.432;2023-03-14T00:13:38;12.20;99.90
25300;DHT22;13241;51.208;4.432;2023-03-14T00:16:07;11.90;99.90
25300;DHT22;13241;51.208;4.432;2023-03-14T00:18:34;11.90;99.90
25300;DHT22;13241;51.208;4.432;2023-03-14T00:21:02;11.90;99.90
25300;DHT22;13241;51.208;4.432;2023-03-14T00:23:30;11.90;99.90
25300;DHT22;13241;51.208;4.432;2023-03-14T00:26:05;11.90;99.90
25300;DHT22;13241;51.208;4.432;2023-03-14T00:28:32;11.80;99.90
25300;DHT22;13241;51.208;4.432;2023-03-14T00:31:01;11.90;99.90
25300;DHT22;13241;51.208;4.432;2023-03-14T00:33:28;11.90;99.90
25300;DHT22;13241;51.208;4.432;2023-03-14T00:35:58;11.90;99.90
25300;DHT22;13241;51.208;4.432;2023-03-14T00:38:30;12.00;99.90
25300;DHT22;13241;51.208;4.432;2023-03-14T00:40:57;11.90;99.90
25300;DHT22;13241;51.208;4.432;2023-03-14T00:43:25;11.90;99.90
25300;DHT22;13241;51.208;4.432;2023-03-14T00:45:53;11.90;99.90
25300;DHT22;13241;51.208;4.432;2023-03-14T00:48:20;11.90;99.90
25300;DHT22;13241;51.208;4.432;2023-03-14T00:50:47;12.00;99.90
25300;DHT22;13241;51.208;4.432;2023-03-14T00:53:15;12.00;99.90
25300;DHT22;13241;51.208;4.432;2023-03-14T00:55:42;12.00;99.90
25300;DHT22;13241;51.208;4.432;2023-03-14T00:58:12;12.00;99.90
25300;DHT22;13241;51.208;4.432;2023-03-14T01:00:40;12.00;99.90
25300;DHT22;13241;51.208;4.432;2023-03-14T01:03:07;12.00;99.90
25300;DHT22;13241;51.208;4.432;2023-03-14T01:05:34;12.00;99.90
25300;DHT22;13241;51.208;4.432;2023-03-14T01:08:02;12.00;99.90
25300;DHT22;13241;51.208;4.432;2023-03-14T01:10:29;12.00;99.90
25300;DHT22;13241;51.208;4.432;2023-03-14T01:12:57;12.00;99.90
25300;DHT22;13241;51.208;4.432;2023-03-14T01:15:24;12.00;99.90
25300;DHT22;13241;51.208;4.432;2023-03-14T01:17:51;11.90;99.90
25300;DHT22;13241;51.208;4.432;2023-03-14T01:20:18;11.90;99.90
25300;DHT22;13241;51.208;4.432;2023-03-14T01:22:45;11.90;99.90
25300;DHT22;13241;51.208;4.432;2023-03-14T01:25:14;11.80;99.90
25300;DHT22;13241;51.208;4.432;2023-03-14T01:27:42;11.80;99.90
25300;DHT22;13241;51.208;4.432;2023-03-14T01:30:10;11.70;99.90
25300;DHT22;13241;51.208;4.432;2023-03-14T01:32:39;11.70;99.90
25300;DHT22;13241;51.208;4.432;2023-03-14T01:35:06;11.70;99.90
25300;DHT22;13241;51.208;4.432;2023-03-14T01:37:34;11.60;99.90
25300;DHT22;13241;51.208;4.432;2023-03-14T01:40:03;11.60;99.90
25300;DHT22;13241;51.208;4.432;2023-03-14T01:42:31;11.60;99.90
25300;DHT22;13241;51.208;4.432;2023-03-14T01:45:02;11.60;99.90
25300;DHT22;13241;51.208;4.432;2023-03-14T01:47:29;11.50;99.90
25300;DHT22;13241;51.208;4.432;2023-03-14T01:50:01;11.50;99.90
25300;DHT22;13241;51.208;4.432;2023-03-14T01:52:35;11.50;99.90
25300;DHT22;13241;51.208;4.432;2023-03-14T01:55:05;11.50;99.90
25300;DHT22;13241;51.208;4.432;2023-03-14T01:57:43;11.50;99.90
25300;DHT22;13241;51.208;4.432;2023-03-14T02:00:14;11.50;99.90
25300;DHT22;13241;51.208;4.432;2023-03-14T02:02:45;11.50;99.90
25300;DHT22;13241;51.208;4.432;2023-03-14T02:05:17;11.50;99.90
25300;DHT22;13241;51.208;4.432;2023-03-14T02:07:55;11.50;99.90
25300;DHT22;13241;51.208;4.432;2023-03-14T02:10:35;11.30;99.90
25300;DHT22;13241;51.208;4.432;2023-03-14T02:13:05;11.30;99.90
25300;DHT22;13241;51.208;4.432;2023-03-14T02:15:43;11.20;99.90
25300;DHT22;13241;51.208;4.432;2023-03-14T02:18:17;11.40;99.90
25300;DHT22;13241;51.208;4.432;2023-03-14T02:21:34;11.20;99.90
25300;DHT22;13241;51.208;4.432;2023-03-14T02:24:11;11.30;99.90
25300;DHT22;13241;51.208;4.432;2023-03-14T02:27:02;11.30;99.90
25300;DHT22;13241;51.208;4.432;2023-03-14T02:29:31;11.40;99.90
25300;DHT22;13241;51.208;4.432;2023-03-14T02:32:02;11.40;99.90
25300;DHT22;13241;51.208;4.432;2023-03-14T02:34:29;11.50;99.90
25300;DHT22;13241;51.208;4.432;2023-03-14T02:36:58;11.50;99.90
25300;DHT22;13241;51.208;4.432;2023-03-14T02:39:36;11.50;99.90
25300;DHT22;13241;51.208;4.432;2023-03-14T02:42:05;11.50;99.90
25300;DHT22;13241;51.208;4.432;2023-03-14T02:44:32;11.50;99.90
25300;DHT22;13241;51.208;4.432;2023-03-14T02:46:59;11.40;99.90
25300;DHT22;13241;51.208;4.432;2023-03-14T02:49:27;11.50;99.90
25300;DHT22;13241;51.208;4.432;2023-03-14T02:51:56;11.60;99.90
25300;DHT22;13241;51.208;4.432;2023-03-14T02:54:24;11.50;99.90
25300;DHT22;13241;51.208;4.432;2023-03-14T02:56:51;11.60;99.90
25300;DHT22;13241;51.208;4.432;2023-03-14T02:59:17;11.50;99.90
25300;DHT22;13241;51.208;4.432;2023-03-14T03:01:49;11.50;99.90
25300;DHT22;13241;51.208;4.432;2023-03-14T03:04:15;11.50;99.90
25300;DHT22;13241;51.208;4.432;2023-03-14T03:06:45;11.40;99.90
25300;DHT22;13241;51.208;4.432;2023-03-14T03:09:13;11.30;99.90
25300;DHT22;13241;51.208;4.432;2023-03-14T03:11:40;11.40;99.90
25300;DHT22;13241;51.208;4.432;2023-03-14T03:14:08;11.40;99.90
25300;DHT22;13241;51.208;4.432;2023-03-14T03:16:35;11.40;99.90
25300;DHT22;13241;51.208;4.432;2023-03-14T03:19:02;11.40;99.90
25300;DHT22;13241;51.208;4.432;2023-03-14T03:21:29;11.40;99.90
25300;DHT22;13241;51.208;4.432;2023-03-14T03:23:56;11.40;99.90
25300;DHT22;13241;51.208;4.432;2023-03-14T03:26:23;11.40;99.90
25300;DHT22;13241;51.208;4.432;2023-03-14T03:28:52;11.50;99.90
25300;DHT22;13241;51.208;4.432;2023-03-14T03:31:20;11.50;99.90
25300;DHT22;13241;51.208;4.432;2023-03-14T03:33:47;11.40;99.90
25300;DHT22;13241;51.208;4.432;2023-03-14T03:36:17;11.50;99.90
25300;DHT22;13241;51.208;4.432;2023-03-14T03:38:49;11.50;99.90
25300;DHT22;13241;51.208;4.432;2023-03-14T03:41:16;11.50;99.90
25300;DHT22;13241;51.208;4.432;2023-03-14T03:43:43;11.50;99.90
25300;DHT22;13241;51.208;4.432;2023-03-14T03:46:13;11.40;99.90
25300;DHT22;13241;51.208;4.432;2023-03-14T03:48:40;11.40;99.90
25300;DHT22;13241;51.208;4.432;2023-03-14T03:51:07;11.30;99.90
25300;DHT22;13241;51.208;4.432;2023-03-14T03:53:37;11.30;99.90
25300;DHT22;13241;51.208;4.432;2023-03-14T03:56:09;11.30;99.90
25300;DHT22;13241;51.208;4.432;2023-03-14T03:58:36;11.30;99.90
25300;DHT22;13241;51.208;4.432;2023-03-14T04:01:06;11.20;99.90
25300;DHT22;13241;51.208;4.432;2023-03-14T04:03:33;11.20;99.90
25300;DHT22;13241;51.208;4.432;2023-03-14T04:06:09;11.30;99.90
25300;DHT22;13241;51.208;4.432;2023-03-14T04:08:38;11.10;99.90
25300;DHT22;13241;51.208;4.432;2023-03-14T04:11:07;11.10;99.90
25300;DHT22;13241;51.208;4.432;2023-03-14T04:13:47;11.10;99.90
25300;DHT22;13241;51.208;4.432;2023-03-14T04:16:18;11.10;99.90
25300;DHT22;13241;51.208;4.432;2023-03-14T04:18:46;11.10;99.90
25300;DHT22;13241;51.208;4.432;2023-03-14T04:21:13;11.10;99.90
25300;DHT22;13241;51.208;4.432;2023-03-14T04:23:45;11.10;99.90
25300;DHT22;13241;51.208;4.432;2023-03-14T04:26:13;11.10;99.90
25300;DHT22;13241;51.208;4.432;2023-03-14T04:28:41;11.10;99.90
25300;DHT22;13241;51.208;4.432;2023-03-14T04:31:11;11.10;99.90
25300;DHT22;13241;51.208;4.432;2023-03-14T04:33:39;11.10;99.90
25300;DHT22;13241;51.208;4.432;2023-03-14T04:36:07;11.10;99.90
25300;DHT22;13241;51.208;4.432;2023-03-14T04:38:35;11.10;99.90
25300;DHT22;13241;51.208;4.432;2023-03-14T04:41:02;11.10;99.90
25300;DHT22;13241;51.208;4.432;2023-03-14T04:43:32;11.10;99.90
25300;DHT22;13241;51.208;4.432;2023-03-14T04:46:04;11.10;99.90
25300;DHT22;13241;51.208;4.432;2023-03-14T04:48:31;11.10;99.90
25300;DHT22;13241;51.208;4.432;2023-03-14T04:50:59;11.10;99.90
25300;DHT22;13241;51.208;4.432;2023-03-14T04:53:30;11.10;99.90
25300;DHT22;13241;51.208;4.432;2023-03-14T04:56:00;11.10;99.90
25300;DHT22;13241;51.208;4.432;2023-03-14T04:58:33;11.10;99.90
25300;DHT22;13241;51.208;4.432;2023-03-14T05:01:04;11.10;99.90
25300;DHT22;13241;51.208;4.432;2023-03-14T05:03:54;11.10;99.90
25300;DHT22;13241;51.208;4.432;2023-03-14T05:06:39;11.10;99.90
25300;DHT22;13241;51.208;4.432;2023-03-14T05:09:33;11.10;99.90
25300;DHT22;13241;51.208;4.432;2023-03-14T05:12:20;11.10;99.90
25300;DHT22;13241;51.208;4.432;2023-03-14T05:14:56;11.10;99.90
25300;DHT22;13241;51.208;4.432;2023-03-14T05:17:56;11.10;99.90
25300;DHT22;13241;51.208;4.432;2023-03-14T05:20:40;11.10;99.90
25300;DHT22;13241;51.208;4.432;2023-03-14T05:23:27;11.10;99.90
25300;DHT22;13241;51.208;4.432;2023-03-14T05:26:09;11.10;99.90
25300;DHT22;13241;51.208;4.432;2023-03-14T05:28:43;11.10;99.90
25300;DHT22;13241;51.208;4.432;2023-03-14T05:31:33;11.10;99.90
25300;DHT22;13241;51.208;4.432;2023-03-14T05:34:21;11.10;99.90
25300;DHT22;13241;51.208;4.432;2023-03-14T05:37:24;11.10;99.90
25300;DHT22;13241;51.208;4.432;2023-03-14T05:40:10;11.10;99.90
25300;DHT22;13241;51.208;4.432;2023-03-14T05:42:46;11.10;99.90
25300;DHT22;13241;51.208;4.432;2023-03-14T05:45:29;11.30;99.90
25300;DHT22;13241;51.208;4.432;2023-03-14T05:48:09;11.20;99.90
25300;DHT22;13241;51.208;4.432;2023-03-14T05:50:44;11.20;99.90
25300;DHT22;13241;51.208;4.432;2023-03-14T05:53:11;11.10;99.90
25300;DHT22;13241;51.208;4.432;2023-03-14T05:55:52;11.10;99.90
25300;DHT22;13241;51.208;4.432;2023-03-14T05:58:45;11.10;99.90
25300;DHT22;13241;51.208;4.432;2023-03-14T06:01:27;11.10;99.90
25300;DHT22;13241;51.208;4.432;2023-03-14T06:04:09;11.10;99.90
25300;DHT22;13241;51.208;4.432;2023-03-14T06:06:36;11.10;99.90
25300;DHT22;13241;51.208;4.432;2023-03-14T06:09:03;11.10;99.90
25300;DHT22;13241;51.208;4.432;2023-03-14T06:11:32;11.10;99.90
25300;DHT22;13241;51.208;4.432;2023-03-14T06:13:59;11.00;99.90
25300;DHT22;13241;51.208;4.432;2023-03-14T06:16:26;11.10;99.90
25300;DHT22;13241;51.208;4.432;2023-03-14T06:18:53;11.10;99.90
25300;DHT22;13241;51.208;4.432;2023-03-14T06:21:22;11.10;99.90
25300;DHT22;13241;51.208;4.432;2023-03-14T06:23:49;11.10;99.90
25300;DHT22;13241;51.208;4.432;2023-03-14T06:26:16;11.10;99.90
25300;DHT22;13241;51.208;4.432;2023-03-14T06:28:43;11.30;99.90
25300;DHT22;13241;51.208;4.432;2023-03-14T06:31:10;11.10;99.90
25300;DHT22;13241;51.208;4.432;2023-03-14T06:33:47;11.20;99.90
25300;DHT22;13241;51.208;4.432;2023-03-14T06:36:14;10.70;99.90
25300;DHT22;13241;51.208;4.432;2023-03-14T06:38:43;10.30;99.90
25300;DHT22;13241;51.208;4.432;2023-03-14T06:41:10;10.00;99.90
25300;DHT22;13241;51.208;4.432;2023-03-14T06:43:40;9.70;99.90
25300;DHT22;13241;51.208;4.432;2023-03-14T06:46:08;9.50;99.90
25300;DHT22;13241;51.208;4.432;2023-03-14T06:48:38;9.30;99.90
25300;DHT22;13241;51.208;4.432;2023-03-14T06:51:06;9.20;99.90
25300;DHT22;13241;51.208;4.432;2023-03-14T06:53:33;9.10;99.90
25300;DHT22;13241;51.208;4.432;2023-03-14T06:56:02;9.10;99.90
25300;DHT22;13241;51.208;4.432;2023-03-14T06:58:31;9.00;99.90
25300;DHT22;13241;51.208;4.432;2023-03-14T07:00:59;8.90;99.90
25300;DHT22;13241;51.208;4.432;2023-03-14T07:03:31;8.90;99.90
25300;DHT22;13241;51.208;4.432;2023-03-14T07:05:59;8.80;99.90
25300;DHT22;13241;51.208;4.432;2023-03-14T07:08:26;8.70;99.90
25300;DHT22;13241;51.208;4.432;2023-03-14T07:10:56;8.70;99.90
25300;DHT22;13241;51.208;4.432;2023-03-14T07:13:24;8.60;99.90
25300;DHT22;13241;51.208;4.432;2023-03-14T07:15:59;8.50;99.90
25300;DHT22;13241;51.208;4.432;2023-03-14T07:18:27;8.50;99.90
25300;DHT22;13241;51.208;4.432;2023-03-14T07:20:54;8.40;99.90
25300;DHT22;13241;51.208;4.432;2023-03-14T07:23:21;8.40;99.90
25300;DHT22;13241;51.208;4.432;2023-03-14T07:25:51;8.50;99.90
25300;DHT22;13241;51.208;4.432;2023-03-14T07:28:21;8.40;99.90
25300;DHT22;13241;51.208;4.432;2023-03-14T07:30:55;8.40;99.90
25300;DHT22;13241;51.208;4.432;2023-03-14T07:33:27;8.30;99.90
25300;DHT22;13241;51.208;4.432;2023-03-14T07:35:54;8.30;99.90
25300;DHT22;13241;51.208;4.432;2023-03-14T07:38:21;8.30;99.90
25300;DHT22;13241;51.208;4.432;2023-03-14T07:41:09;8.40;99.90
25300;DHT22;13241;51.208;4.432;2023-03-14T07:43:42;8.30;99.90
25300;DHT22;13241;51.208;4.432;2023-03-14T07:46:09;8.30;99.90
25300;DHT22;13241;51.208;4.432;2023-03-14T07:48:36;8.30;99.90
25300;DHT22;13241;51.208;4.432;2023-03-14T07:51:03;8.40;99.90
25300;DHT22;13241;51.208;4.432;2023-03-14T07:53:30;8.30;99.90
25300;DHT22;13241;51.208;4.432;2023-03-14T07:55:57;8.30;99.90
25300;DHT22;13241;51.208;4.432;2023-03-14T07:58:24;8.40;99.90
25300;DHT22;13241;51.208;4.432;2023-03-14T08:00:51;8.40;99.90
25300;DHT22;13241;51.208;4.432;2023-03-14T08:03:19;8.40;99.90
25300;DHT22;13241;51.208;4.432;2023-03-14T08:05:49;8.40;99.90
25300;DHT22;13241;51.208;4.432;2023-03-14T08:08:17;8.50;99.90
25300;DHT22;13241;51.208;4.432;2023-03-14T08:10:45;8.50;99.90
25300;DHT22;13241;51.208;4.432;2023-03-14T08:13:13;8.70;99.90
25300;DHT22;13241;51.208;4.432;2023-03-14T08:15:39;8.80;99.90
25300;DHT22;13241;51.208;4.432;2023-03-14T08:18:06;8.80;99.90
25300;DHT22;13241;51.208;4.432;2023-03-14T08:20:35;8.80;99.90
25300;DHT22;13241;51.208;4.432;2023-03-14T08:23:02;8.80;99.90
25300;DHT22;13241;51.208;4.432;2023-03-14T08:25:29;8.80;99.90
25300;DHT22;13241;51.208;4.432;2023-03-14T08:27:56;8.90;99.90
25300;DHT22;13241;51.208;4.432;2023-03-14T08:30:23;8.90;99.90
25300;DHT22;13241;51.208;4.432;2023-03-14T08:32:51;9.00;99.90
25300;DHT22;13241;51.208;4.432;2023-03-14T08:35:18;9.10;99.90
25300;DHT22;13241;51.208;4.432;2023-03-14T08:37:45;9.00;99.90
25300;DHT22;13241;51.208;4.432;2023-03-14T08:40:12;8.90;99.90
25300;DHT22;13241;51.208;4.432;2023-03-14T08:42:39;8.90;99.90
25300;DHT22;13241;51.208;4.432;2023-03-14T08:45:07;8.90;99.90
25300;DHT22;13241;51.208;4.432;2023-03-14T08:47:34;8.80;99.90
25300;DHT22;13241;51.208;4.432;2023-03-14T08:50:01;8.90;99.90
25300;DHT22;13241;51.208;4.432;2023-03-14T08:52:28;9.00;99.90
25300;DHT22;13241;51.208;4.432;2023-03-14T08:54:57;9.10;99.90
25300;DHT22;13241;51.208;4.432;2023-03-14T08:57:25;9.10;99.90
25300;DHT22;13241;51.208;4.432;2023-03-14T08:59:55;9.00;99.90
25300;DHT22;13241;51.208;4.432;2023-03-14T09:02:23;8.90;99.90
25300;DHT22;13241;51.208;4.432;2023-03-14T09:04:50;8.70;99.90
25300;DHT22;13241;51.208;4.432;2023-03-14T09:07:19;8.70;99.90
25300;DHT22;13241;51.208;4.432;2023-03-14T09:09:45;8.70;99.90
25300;DHT22;13241;51.208;4.432;2023-03-14T09:12:12;8.80;99.90
25300;DHT22;13241;51.208;4.432;2023-03-14T09:14:39;8.70;99.90
25300;DHT22;13241;51.208;4.432;2023-03-14T09:17:06;8.70;99.90
25300;DHT22;13241;51.208;4.432;2023-03-14T09:19:34;8.80;99.90
25300;DHT22;13241;51.208;4.432;2023-03-14T09:22:01;8.90;99.90
25300;DHT22;13241;51.208;4.432;2023-03-14T09:24:28;9.00;99.90
25300;DHT22;13241;51.208;4.432;2023-03-14T09:26:55;8.90;99.90
25300;DHT22;13241;51.208;4.432;2023-03-14T09:29:23;8.90;99.90
25300;DHT22;13241;51.208;4.432;2023-03-14T09:31:50;9.00;99.90
25300;DHT22;13241;51.208;4.432;2023-03-14T09:34:17;9.00;99.90
25300;DHT22;13241;51.208;4.432;2023-03-14T09:36:45;8.90;99.90
25300;DHT22;13241;51.208;4.432;2023-03-14T09:39:12;8.90;99.90
25300;DHT22;13241;51.208;4.432;2023-03-14T09:41:42;8.80;99.90
25300;DHT22;13241;51.208;4.432;2023-03-14T09:44:21;8.70;99.90
25300;DHT22;13241;51.208;4.432;2023-03-14T09:46:53;8.60;99.90
25300;DHT22;13241;51.208;4.432;2023-03-14T09:49:24;8.60;99.90
25300;DHT22;13241;51.208;4.432;2023-03-14T09:51:55;8.50;99.90
25300;DHT22;13241;51.208;4.432;2023-03-14T09:55:05;8.40;99.90
25300;DHT22;13241;51.208;4.432;2023-03-14T09:57:34;8.30;99.90
25300;DHT22;13241;51.208;4.432;2023-03-14T10:00:06;8.30;99.90
25300;DHT22;13241;51.208;4.432;2023-03-14T10:02:43;8.40;99.90
25300;DHT22;13241;51.208;4.432;2023-03-14T10:05:18;8.60;99.90
25300;DHT22;13241;51.208;4.432;2023-03-14T10:07:45;8.90;99.90
25300;DHT22;13241;51.208;4.432;2023-03-14T10:10:20;9.10;99.90
25300;DHT22;13241;51.208;4.432;2023-03-14T10:12:56;9.20;99.90
25300;DHT22;13241;51.208;4.432;2023-03-14T10:15:31;9.20;99.90
25300;DHT22;13241;51.208;4.432;2023-03-14T10:18:03;9.20;99.90
25300;DHT22;13241;51.208;4.432;2023-03-14T10:20:35;9.30;99.90
25300;DHT22;13241;51.208;4.432;2023-03-14T10:25:44;9.50;99.90
25300;DHT22;13241;51.208;4.432;2023-03-14T10:30:52;9.00;99.90
25300;DHT22;13241;51.208;4.432;2023-03-14T10:36:03;8.90;99.90
25300;DHT22;13241;51.208;4.432;2023-03-14T10:38:33;9.10;99.90
25300;DHT22;13241;51.208;4.432;2023-03-14T10:41:01;9.30;99.90
25300;DHT22;13241;51.208;4.432;2023-03-14T10:43:33;9.40;99.90
25300;DHT22;13241;51.208;4.432;2023-03-14T10:46:18;9.60;99.90
25300;DHT22;13241;51.208;4.432;2023-03-14T10:49:05;9.70;99.90
25300;DHT22;13241;51.208;4.432;2023-03-14T10:51:35;9.80;99.90
25300;DHT22;13241;51.208;4.432;2023-03-14T10:57:01;9.90;99.90
25300;DHT22;13241;51.208;4.432;2023-03-14T10:59:36;10.00;99.90
25300;DHT22;13241;51.208;4.432;2023-03-14T11:07:53;9.60;99.90
25300;DHT22;13241;51.208;4.432;2023-03-14T11:10:32;9.60;99.90
25300;DHT22;13241;51.208;4.432;2023-03-14T11:21:27;9.90;99.90
25300;DHT22;13241;51.208;4.432;2023-03-14T11:24:08;10.00;99.90
25300;DHT22;13241;51.208;4.432;2023-03-14T11:27:00;9.70;99.90
25300;DHT22;13241;51.208;4.432;2023-03-14T11:32:54;8.60;99.90
25300;DHT22;13241;51.208;4.432;2023-03-14T11:35:33;8.00;99.90
25300;DHT22;13241;51.208;4.432;2023-03-14T11:38:13;7.60;99.90
25300;DHT22;13241;51.208;4.432;2023-03-14T11:40:41;7.50;99.90
25300;DHT22;13241;51.208;4.432;2023-03-14T11:43:17;7.40;99.90
25300;DHT22;13241;51.208;4.432;2023-03-14T11:45:48;7.50;99.90
25300;DHT22;13241;51.208;4.432;2023-03-14T11:48:29;7.70;99.90
25300;DHT22;13241;51.208;4.432;2023-03-14T11:51:02;7.90;99.90
25300;DHT22;13241;51.208;4.432;2023-03-14T11:56:43;8.10;99.90
25300;DHT22;13241;51.208;4.432;2023-03-14T11:59:23;8.40;99.90
25300;DHT22;13241;51.208;4.432;2023-03-14T12:02:03;8.80;99.90
25300;DHT22;13241;51.208;4.432;2023-03-14T12:07:32;9.60;99.90
25300;DHT22;13241;51.208;4.432;2023-03-14T12:10:02;9.70;99.90
25300;DHT22;13241;51.208;4.432;2023-03-14T12:12:30;9.80;99.90
25300;DHT22;13241;51.208;4.432;2023-03-14T12:15:00;10.00;99.90
25300;DHT22;13241;51.208;4.432;2023-03-14T12:17:36;10.10;99.90
25300;DHT22;13241;51.208;4.432;2023-03-14T12:20:21;10.00;99.90
25300;DHT22;13241;51.208;4.432;2023-03-14T12:23:01;9.60;99.90
25300;DHT22;13241;51.208;4.432;2023-03-14T12:25:31;9.40;99.90
25300;DHT22;13241;51.208;4.432;2023-03-14T12:30:38;8.30;99.90
25300;DHT22;13241;51.208;4.432;2023-03-14T12:35:45;7.80;99.90
25300;DHT22;13241;51.208;4.432;2023-03-14T12:41:01;8.20;99.90
25300;DHT22;13241;51.208;4.432;2023-03-14T12:43:31;8.60;99.90
25300;DHT22;13241;51.208;4.432;2023-03-14T12:51:38;9.30;99.90
25300;DHT22;13241;51.208;4.432;2023-03-14T12:57:15;9.20;99.90
25300;DHT22;13241;51.208;4.432;2023-03-14T12:59:58;9.10;99.90
25300;DHT22;13241;51.208;4.432;2023-03-14T13:02:38;9.00;99.90
25300;DHT22;13241;51.208;4.432;2023-03-14T13:05:24;9.00;99.90
25300;DHT22;13241;51.208;4.432;2023-03-14T13:10:29;9.10;99.90
25300;DHT22;13241;51.208;4.432;2023-03-14T13:13:23;9.10;99.90
25300;DHT22;13241;51.208;4.432;2023-03-14T13:15:57;9.10;99.90
25300;DHT22;13241;51.208;4.432;2023-03-14T13:18:39;9.20;99.90
25300;DHT22;13241;51.208;4.432;2023-03-14T13:21:19;9.10;99.90
25300;DHT22;13241;51.208;4.432;2023-03-14T13:26:40;9.00;99.90
25300;DHT22;13241;51.208;4.432;2023-03-14T13:29:16;9.10;99.90
25300;DHT22;13241;51.208;4.432;2023-03-14T13:31:45;9.10;99.90
25300;DHT22;13241;51.208;4.432;2023-03-14T13:34:13;9.20;99.90
25300;DHT22;13241;51.208;4.432;2023-03-14T13:36:40;9.30;99.90
25300;DHT22;13241;51.208;4.432;2023-03-14T13:39:13;9.40;99.90
25300;DHT22;13241;51.208;4.432;2023-03-14T13:41:41;9.40;99.90
25300;DHT22;13241;51.208;4.432;2023-03-14T13:44:17;9.50;99.90
25300;DHT22;13241;51.208;4.432;2023-03-14T13:46:45;9.60;99.90
25300;DHT22;13241;51.208;4.432;2023-03-14T13:49:22;9.80;99.90
25300;DHT22;13241;51.208;4.432;2023-03-14T13:51:50;10.00;99.90
25300;DHT22;13241;51.208;4.432;2023-03-14T13:54:19;10.20;99.90
25300;DHT22;13241;51.208;4.432;2023-03-14T13:56:46;10.30;99.90
25300;DHT22;13241;51.208;4.432;2023-03-14T13:59:24;10.20;99.90
25300;DHT22;13241;51.208;4.432;2023-03-14T14:01:54;10.00;99.90
25300;DHT22;13241;51.208;4.432;2023-03-14T14:04:24;9.70;99.90
25300;DHT22;13241;51.208;4.432;2023-03-14T14:06:55;9.50;99.90
25300;DHT22;13241;51.208;4.432;2023-03-14T14:09:37;9.40;99.90
25300;DHT22;13241;51.208;4.432;2023-03-14T14:12:13;9.10;99.90
25300;DHT22;13241;51.208;4.432;2023-03-14T14:14:59;8.90;99.90
25300;DHT22;13241;51.208;4.432;2023-03-14T14:17:51;8.70;99.90
25300;DHT22;13241;51.208;4.432;2023-03-14T14:20:20;8.70;99.90
25300;DHT22;13241;51.208;4.432;2023-03-14T14:22:49;8.70;99.90
25300;DHT22;13241;51.208;4.432;2023-03-14T14:25:17;8.80;99.90
25300;DHT22;13241;51.208;4.432;2023-03-14T14:27:48;8.80;99.90
25300;DHT22;13241;51.208;4.432;2023-03-14T14:32:50;8.60;99.90
25300;DHT22;13241;51.208;4.432;2023-03-14T14:35:31;8.50;99.90
25300;DHT22;13241;51.208;4.432;2023-03-14T14:37:59;8.40;99.90
25300;DHT22;13241;51.208;4.432;2023-03-14T14:40:30;8.60;99.90
25300;DHT22;13241;51.208;4.432;2023-03-14T14:43:04;8.90;99.90
25300;DHT22;13241;51.208;4.432;2023-03-14T14:45:34;9.10;99.90
25300;DHT22;13241;51.208;4.432;2023-03-14T14:52:59;9.20;99.90
25300;DHT22;13241;51.208;4.432;2023-03-14T14:55:33;9.00;99.90
25300;DHT22;13241;51.208;4.432;2023-03-14T14:58:34;8.80;99.90
25300;DHT22;13241;51.208;4.432;2023-03-14T15:01:10;8.60;99.90
25300;DHT22;13241;51.208;4.432;2023-03-14T15:03:38;8.60;99.90
25300;DHT22;13241;51.208;4.432;2023-03-14T15:06:05;8.50;99.90
25300;DHT22;13241;51.208;4.432;2023-03-14T15:08:31;8.40;99.90
25300;DHT22;13241;51.208;4.432;2023-03-14T15:10:58;8.30;99.90
25300;DHT22;13241;51.208;4.432;2023-03-14T15:13:25;8.20;99.90
25300;DHT22;13241;51.208;4.432;2023-03-14T15:15:52;8.20;99.90
25300;DHT22;13241;51.208;4.432;2023-03-14T15:18:24;8.20;99.90
25300;DHT22;13241;51.208;4.432;2023-03-14T15:20:52;8.10;99.90
25300;DHT22;13241;51.208;4.432;2023-03-14T15:23:21;8.20;99.90
25300;DHT22;13241;51.208;4.432;2023-03-14T15:25:48;8.20;99.90
25300;DHT22;13241;51.208;4.432;2023-03-14T15:28:28;8.20;99.90
25300;DHT22;13241;51.208;4.432;2023-03-14T15:30:57;8.20;99.90
25300;DHT22;13241;51.208;4.432;2023-03-14T15:33:25;8.30;99.90
25300;DHT22;13241;51.208;4.432;2023-03-14T15:35:52;8.30;99.90
25300;DHT22;13241;51.208;4.432;2023-03-14T15:38:21;8.20;99.90
25300;DHT22;13241;51.208;4.432;2023-03-14T15:40:50;8.10;99.90
25300;DHT22;13241;51.208;4.432;2023-03-14T15:43:18;8.10;99.90
25300;DHT22;13241;51.208;4.432;2023-03-14T15:45:45;8.00;99.90
25300;DHT22;13241;51.208;4.432;2023-03-14T15:48:15;8.00;99.90
25300;DHT22;13241;51.208;4.432;2023-03-14T15:50:43;8.00;99.90
25300;DHT22;13241;51.208;4.432;2023-03-14T15:53:11;7.90;99.90
25300;DHT22;13241;51.208;4.432;2023-03-14T15:55:37;7.90;99.90
25300;DHT22;13241;51.208;4.432;2023-03-14T15:58:04;7.90;99.90
25300;DHT22;13241;51.208;4.432;2023-03-14T16:00:31;7.90;99.90
25300;DHT22;13241;51.208;4.432;2023-03-14T16:02:58;7.90;99.90
25300;DHT22;13241;51.208;4.432;2023-03-14T16:05:25;7.90;99.90
25300;DHT22;13241;51.208;4.432;2023-03-14T16:07:52;7.90;99.90
25300;DHT22;13241;51.208;4.432;2023-03-14T16:10:19;7.90;99.90
25300;DHT22;13241;51.208;4.432;2023-03-14T16:12:46;8.00;99.90
25300;DHT22;13241;51.208;4.432;2023-03-14T16:15:13;7.90;99.90
25300;DHT22;13241;51.208;4.432;2023-03-14T16:17:39;7.80;99.90
25300;DHT22;13241;51.208;4.432;2023-03-14T16:20:10;7.80;99.90
25300;DHT22;13241;51.208;4.432;2023-03-14T16:22:37;7.70;99.90
25300;DHT22;13241;51.208;4.432;2023-03-14T16:25:06;7.70;99.90
25300;DHT22;13241;51.208;4.432;2023-03-14T16:27:33;7.80;99.90
25300;DHT22;13241;51.208;4.432;2023-03-14T16:30:00;7.70;99.90
25300;DHT22;13241;51.208;4.432;2023-03-14T16:32:27;7.70;99.90
25300;DHT22;13241;51.208;4.432;2023-03-14T16:34:55;7.70;99.90
25300;DHT22;13241;51.208;4.432;2023-03-14T16:37:23;7.70;99.90
25300;DHT22;13241;51.208;4.432;2023-03-14T16:39:50;7.70;99.90
25300;DHT22;13241;51.208;4.432;2023-03-14T16:42:37;7.80;99.90
25300;DHT22;13241;51.208;4.432;2023-03-14T16:45:20;7.80;99.90
25300;DHT22;13241;51.208;4.432;2023-03-14T16:47:49;7.80;99.90
25300;DHT22;13241;51.208;4.432;2023-03-14T16:50:16;7.80;99.90
25300;DHT22;13241;51.208;4.432;2023-03-14T16:52:42;7.70;99.90
25300;DHT22;13241;51.208;4.432;2023-03-14T16:55:12;7.80;99.90
25300;DHT22;13241;51.208;4.432;2023-03-14T16:57:39;7.60;99.90
25300;DHT22;13241;51.208;4.432;2023-03-14T17:00:06;7.60;99.90
25300;DHT22;13241;51.208;4.432;2023-03-14T17:02:37;7.60;99.90
25300;DHT22;13241;51.208;4.432;2023-03-14T17:05:04;7.70;99.90
25300;DHT22;13241;51.208;4.432;2023-03-14T17:07:31;7.70;99.90
25300;DHT22;13241;51.208;4.432;2023-03-14T17:09:58;7.80;99.90